createdAt,value
2019-05-25T00:01:35.962Z,99.90
2019-05-25T00:04:06.252Z,99.90
2019-05-25T00:06:36.582Z,99.90
2019-05-25T00:09:08.094Z,99.90
2019-05-25T00:11:39.856Z,99.90
2019-05-25T00:14:10.126Z,99.90
2019-05-25T00:16:40.388Z,99.90
2019-05-25T00:19:10.654Z,99.90
2019-05-25T00:21:41.123Z,99.90
2019-05-25T00:24:12.759Z,99.90
2019-05-25T00:26:43.380Z,99.90
2019-05-25T00:29:15.242Z,99.90
2019-05-25T00:31:45.502Z,99.90
2019-05-25T00:34:15.977Z,99.90
2019-05-25T00:36:46.643Z,99.90
2019-05-25T00:39:16.967Z,99.90
2019-05-25T00:41:47.296Z,99.90
2019-05-25T00:44:17.584Z,99.90
2019-05-25T00:46:47.842Z,99.90
2019-05-25T00:49:18.271Z,99.90
2019-05-25T00:51:48.521Z,99.90
2019-05-25T00:54:27.508Z,99.90
2019-05-25T00:56:50.851Z,99.90
2019-05-25T00:59:21.127Z,99.90
2019-05-25T01:01:51.393Z,99.90
2019-05-25T01:04:21.675Z,99.90
2019-05-25T01:06:51.936Z,99.90
2019-05-25T01:09:22.638Z,99.90
2019-05-25T01:11:53.039Z,99.90
2019-05-25T01:14:23.451Z,99.90
2019-05-25T01:16:53.800Z,99.90
2019-05-25T01:19:24.119Z,99.90
2019-05-25T01:21:54.366Z,99.90
2019-05-25T01:24:24.659Z,99.90
2019-05-25T01:26:55.143Z,99.90
2019-05-25T01:29:25.406Z,99.90
2019-05-25T01:31:55.782Z,99.90
2019-05-25T01:34:25.998Z,99.90
2019-05-25T01:36:56.448Z,99.90
2019-05-25T01:39:26.794Z,99.90
2019-05-25T01:41:57.261Z,99.90
2019-05-25T01:44:28.612Z,99.90
2019-05-25T01:46:58.874Z,99.90
2019-05-25T01:49:29.350Z,99.90
2019-05-25T01:51:59.542Z,99.90
2019-05-25T01:54:30.250Z,99.90
2019-05-25T01:57:00.664Z,99.90
2019-05-25T01:59:31.232Z,99.90
2019-05-25T02:02:01.768Z,99.90
2019-05-25T02:04:32.510Z,99.90
2019-05-25T02:07:03.084Z,99.90
2019-05-25T02:09:33.524Z,99.90
2019-05-25T02:12:03.956Z,99.90
2019-05-25T02:14:34.362Z,99.90
2019-05-25T02:17:04.683Z,99.90
2019-05-25T02:19:35.058Z,99.90
2019-05-25T02:22:05.402Z,99.90
2019-05-25T02:24:36.328Z,99.90
2019-05-25T02:27:06.614Z,99.90
2019-05-25T02:29:37.325Z,99.90
2019-05-25T02:32:07.531Z,99.90
2019-05-25T02:34:37.778Z,99.90
2019-05-25T02:37:07.993Z,99.90
2019-05-25T02:39:38.312Z,99.90
2019-05-25T02:42:08.538Z,99.90
2019-05-25T02:44:38.816Z,99.90
2019-05-25T02:47:09.058Z,99.90
2019-05-25T02:49:39.435Z,99.90
2019-05-25T02:52:09.823Z,99.90
2019-05-25T02:54:40.063Z,99.90
2019-05-25T02:57:10.294Z,99.90
2019-05-25T02:59:40.555Z,99.90
2019-05-25T03:02:10.872Z,99.90
2019-05-25T03:04:41.141Z,99.90
2019-05-25T03:07:12.946Z,99.90
2019-05-25T03:09:45.230Z,99.90
2019-05-25T03:12:15.718Z,99.90
2019-05-25T03:14:47.704Z,99.90
2019-05-25T03:17:18.066Z,99.90
2019-05-25T03:19:48.479Z,99.90
2019-05-25T03:22:18.751Z,99.90
2019-05-25T03:24:49.306Z,99.90
2019-05-25T03:27:19.769Z,99.90
2019-05-25T03:29:50.385Z,99.90
2019-05-25T03:32:20.652Z,99.90
2019-05-25T03:34:50.920Z,99.90
2019-05-25T03:37:21.249Z,99.90
2019-05-25T03:39:51.593Z,99.90
2019-05-25T03:42:21.810Z,99.90
2019-05-25T03:44:52.103Z,99.90
2019-05-25T03:47:22.515Z,99.90
2019-05-25T03:49:53.886Z,99.90
2019-05-25T03:52:24.281Z,99.90
2019-05-25T03:54:54.590Z,99.90
2019-05-25T03:57:24.818Z,99.90
2019-05-25T03:59:55.046Z,99.90
2019-05-25T04:02:25.326Z,99.90
2019-05-25T04:04:56.755Z,99.90
2019-05-25T04:07:27.049Z,99.90
2019-05-25T04:09:57.292Z,99.90
2019-05-25T04:12:27.598Z,99.90
2019-05-25T04:14:57.907Z,99.90
2019-05-25T04:17:28.177Z,99.90
2019-05-25T04:19:58.509Z,99.90
2019-05-25T04:22:28.830Z,99.90
2019-05-25T04:24:59.194Z,99.90
2019-05-25T04:27:29.505Z,99.90
2019-05-25T04:29:59.783Z,99.90
2019-05-25T04:32:30.105Z,99.90
2019-05-25T04:35:00.494Z,99.90
2019-05-25T04:37:30.862Z,99.90
2019-05-25T04:40:01.077Z,99.90
2019-05-25T04:42:31.419Z,99.90
2019-05-25T04:45:01.662Z,99.90
2019-05-25T04:47:32.139Z,99.90
2019-05-25T04:50:02.444Z,99.90
2019-05-25T04:52:32.708Z,99.90
2019-05-25T04:55:02.979Z,99.90
2019-05-25T04:57:34.268Z,99.90
2019-05-25T05:00:05.445Z,99.90
2019-05-25T05:02:35.759Z,99.90
2019-05-25T05:05:06.853Z,99.90
2019-05-25T05:07:37.151Z,99.90
2019-05-25T05:10:07.573Z,99.90
2019-05-25T05:12:37.836Z,99.90
2019-05-25T05:15:09.113Z,99.90
2019-05-25T05:17:40.456Z,99.90
2019-05-25T05:20:10.854Z,99.90
2019-05-25T05:22:41.143Z,99.90
2019-05-25T05:25:12.191Z,99.90
2019-05-25T05:27:42.764Z,99.90
2019-05-25T05:30:13.401Z,99.90
2019-05-25T05:32:43.845Z,99.90
2019-05-25T05:35:14.286Z,99.90
2019-05-25T05:37:46.061Z,99.90
2019-05-25T05:40:16.811Z,99.90
2019-05-25T05:42:49.897Z,99.90
2019-05-25T05:45:20.154Z,99.90
2019-05-25T05:47:52.480Z,99.90
2019-05-25T05:50:22.778Z,99.90
2019-05-25T05:52:55.892Z,99.90
2019-05-25T05:55:32.243Z,99.90
2019-05-25T05:58:02.995Z,99.90
2019-05-25T06:00:33.243Z,99.90
2019-05-25T06:03:03.797Z,99.90
2019-05-25T06:05:34.069Z,99.90
2019-05-25T06:08:04.342Z,99.90
2019-05-25T06:10:34.630Z,99.90
2019-05-25T06:13:04.962Z,99.90
2019-05-25T06:15:35.246Z,99.90
2019-05-25T06:18:05.609Z,99.90
2019-05-25T06:20:35.991Z,99.90
2019-05-25T06:23:12.053Z,99.90
2019-05-25T06:25:43.635Z,99.90
2019-05-25T06:28:13.974Z,99.90
2019-05-25T06:30:44.397Z,99.90
2019-05-25T06:33:14.700Z,99.90
2019-05-25T06:35:45.027Z,99.90
2019-05-25T06:38:15.454Z,99.90
2019-05-25T06:40:45.757Z,99.90
2019-05-25T06:43:16.901Z,99.90
2019-05-25T06:45:49.088Z,99.90
2019-05-25T06:48:19.521Z,99.90
2019-05-25T06:50:49.894Z,99.90
2019-05-25T06:53:20.234Z,99.90
2019-05-25T06:55:52.319Z,99.90
2019-05-25T06:58:24.271Z,99.90
2019-05-25T07:00:54.564Z,99.90
2019-05-25T07:03:25.113Z,99.90
2019-05-25T07:05:55.642Z,99.90
2019-05-25T07:08:27.997Z,99.90
2019-05-25T07:10:58.630Z,99.90
2019-05-25T07:13:28.936Z,99.90
2019-05-25T07:16:00.423Z,99.90
2019-05-25T07:18:30.759Z,99.90
2019-05-25T07:21:01.171Z,99.90
2019-05-25T07:23:31.426Z,99.90
2019-05-25T07:26:01.772Z,99.90
2019-05-25T07:28:33.130Z,99.90
2019-05-25T07:31:03.504Z,99.90
2019-05-25T07:33:33.756Z,99.90
2019-05-25T07:36:07.586Z,99.90
2019-05-25T07:38:36.041Z,99.90
2019-05-25T07:41:06.349Z,99.90
2019-05-25T07:43:36.674Z,99.90
2019-05-25T07:46:07.010Z,99.90
2019-05-25T07:48:37.359Z,99.90
2019-05-25T07:51:07.623Z,99.90
2019-05-25T07:53:37.879Z,99.90
2019-05-25T07:56:08.111Z,99.90
2019-05-25T07:58:38.427Z,99.90
2019-05-25T08:01:08.718Z,99.90
2019-05-25T08:03:39.904Z,99.90
2019-05-25T08:06:10.295Z,99.90
2019-05-25T08:08:40.570Z,99.90
2019-05-25T08:11:10.826Z,99.90
2019-05-25T08:13:41.087Z,99.90
2019-05-25T08:16:11.343Z,99.90
2019-05-25T08:18:41.622Z,99.90
2019-05-25T08:21:12.017Z,99.90
2019-05-25T08:23:42.274Z,99.90
2019-05-25T08:26:12.489Z,99.90
2019-05-25T08:28:42.761Z,99.90
2019-05-25T08:31:13.006Z,99.90
2019-05-25T08:33:43.296Z,99.90
2019-05-25T08:36:13.514Z,99.90
2019-05-25T08:38:43.741Z,99.90
2019-05-25T08:41:13.962Z,99.90
2019-05-25T08:43:44.236Z,99.90
2019-05-25T08:46:14.552Z,99.90
2019-05-25T08:48:44.827Z,99.90
2019-05-25T08:51:15.116Z,99.90
2019-05-25T08:53:47.527Z,99.90
2019-05-25T08:56:17.780Z,99.90
2019-05-25T08:58:48.850Z,99.90
2019-05-25T09:01:19.280Z,99.90
2019-05-25T09:03:49.542Z,99.90
2019-05-25T09:06:19.868Z,99.90
2019-05-25T09:08:50.186Z,99.90
2019-05-25T09:11:20.463Z,99.90
2019-05-25T09:13:50.789Z,99.90
2019-05-25T09:16:21.046Z,99.90
2019-05-25T09:18:51.329Z,99.90
2019-05-25T09:21:21.591Z,99.90
2019-05-25T09:23:51.869Z,99.90
2019-05-25T09:26:22.156Z,99.90
2019-05-25T09:29:03.981Z,99.90
2019-05-25T09:31:24.430Z,99.90
2019-05-25T09:33:54.779Z,99.90
2019-05-25T09:36:25.186Z,99.90
2019-05-25T09:38:55.454Z,99.90
2019-05-25T09:41:25.896Z,99.90
2019-05-25T09:43:56.165Z,99.90
2019-05-25T09:46:26.453Z,99.90
2019-05-25T09:48:56.667Z,99.90
2019-05-25T09:51:26.988Z,99.90
2019-05-25T09:53:58.194Z,99.90
2019-05-25T09:56:28.480Z,99.80
2019-05-25T09:58:58.762Z,99.90
2019-05-25T10:01:32.058Z,99.90
2019-05-25T10:04:02.292Z,99.90
2019-05-25T10:06:32.583Z,99.90
2019-05-25T10:09:02.894Z,99.70
2019-05-25T10:11:33.225Z,98.00
2019-05-25T10:14:03.580Z,98.10
2019-05-25T10:16:34.044Z,97.90
2019-05-25T10:19:04.394Z,96.30
2019-05-25T10:21:34.830Z,96.20
2019-05-25T10:24:05.147Z,95.30
2019-05-25T10:26:35.584Z,96.30
2019-05-25T10:29:05.913Z,98.30
2019-05-25T10:31:36.199Z,97.80
2019-05-25T10:34:06.570Z,97.10
2019-05-25T10:36:36.866Z,97.00
2019-05-25T10:39:08.843Z,96.90
2019-05-25T10:41:39.116Z,96.70
2019-05-25T10:44:09.523Z,95.80
2019-05-25T10:46:39.798Z,95.60
2019-05-25T10:49:11.778Z,94.80
2019-05-25T10:51:43.006Z,96.50
2019-05-25T10:54:13.992Z,94.50
2019-05-25T10:56:44.376Z,98.20
2019-05-25T10:59:14.803Z,97.20
2019-05-25T11:01:45.128Z,96.30
2019-05-25T11:04:15.757Z,96.00
2019-05-25T11:06:46.009Z,96.80
2019-05-25T11:09:16.495Z,97.30
2019-05-25T11:11:46.739Z,97.40
2019-05-25T11:14:17.409Z,96.40
2019-05-25T11:16:47.703Z,95.80
2019-05-25T11:19:18.466Z,96.20
2019-05-25T11:21:48.832Z,97.90
2019-05-25T11:24:19.450Z,98.70
2019-05-25T11:26:49.729Z,99.90
2019-05-25T11:29:20.010Z,98.20
2019-05-25T11:31:57.656Z,98.40
2019-05-25T11:34:22.302Z,98.90
2019-05-25T11:36:53.662Z,99.10
2019-05-25T11:39:23.971Z,98.20
2019-05-25T11:41:54.253Z,97.50
2019-05-25T11:44:24.537Z,98.70
2019-05-25T11:46:54.828Z,98.20
2019-05-25T11:49:25.164Z,96.80
2019-05-25T11:51:55.402Z,96.60
2019-05-25T11:54:25.725Z,98.20
2019-05-25T11:56:55.962Z,98.90
2019-05-25T11:59:26.202Z,98.60
2019-05-25T12:01:56.564Z,97.50
2019-05-25T12:04:26.926Z,98.00
2019-05-25T12:06:57.202Z,97.70
2019-05-25T12:09:27.507Z,97.70
2019-05-25T12:11:57.813Z,96.50
2019-05-25T12:14:28.048Z,95.60
2019-05-25T12:16:58.299Z,95.50
2019-05-25T12:19:28.595Z,96.10
2019-05-25T12:21:58.894Z,97.10
2019-05-25T12:24:29.827Z,96.40
2019-05-25T12:27:00.724Z,95.40
2019-05-25T12:29:31.032Z,97.10
2019-05-25T12:32:04.372Z,96.00
2019-05-25T12:34:33.380Z,96.10
2019-05-25T12:37:03.699Z,95.60
2019-05-25T12:39:34.389Z,96.00
2019-05-25T12:42:04.783Z,95.30
2019-05-25T12:44:35.756Z,95.40
2019-05-25T12:47:06.342Z,94.50
2019-05-25T12:49:50.052Z,95.30
2019-05-25T12:52:08.566Z,95.70
2019-05-25T12:54:40.002Z,96.90
2019-05-25T12:57:10.317Z,95.40
2019-05-25T12:59:40.571Z,94.60
2019-05-25T13:02:11.007Z,96.50
2019-05-25T13:04:41.316Z,95.80
2019-05-25T13:07:12.096Z,97.70
2019-05-25T13:09:42.362Z,97.30
2019-05-25T13:12:12.603Z,96.40
2019-05-25T13:14:42.847Z,96.00
2019-05-25T13:17:19.673Z,96.00
2019-05-25T13:19:49.975Z,95.80
2019-05-25T13:22:20.244Z,95.80
2019-05-25T13:24:50.557Z,96.80
2019-05-25T13:27:21.155Z,96.60
2019-05-25T13:29:51.452Z,96.60
2019-05-25T13:32:21.723Z,96.20
2019-05-25T13:34:52.011Z,95.00
2019-05-25T13:37:22.885Z,96.40
2019-05-25T13:39:53.199Z,96.70
2019-05-25T13:42:23.438Z,96.20
2019-05-25T13:44:53.723Z,98.00
2019-05-25T13:47:23.987Z,95.80
2019-05-25T13:49:56.352Z,94.50
2019-05-25T13:52:26.829Z,95.90
2019-05-25T13:54:57.119Z,92.50
2019-05-25T13:57:27.356Z,92.10
2019-05-25T13:59:57.599Z,92.30
2019-05-25T14:02:29.577Z,91.80
2019-05-25T14:04:59.885Z,91.80
2019-05-25T14:07:30.419Z,90.90
2019-05-25T14:10:01.799Z,91.60
2019-05-25T14:12:32.102Z,92.70
2019-05-25T14:15:02.470Z,92.80
2019-05-25T14:17:35.346Z,91.10
2019-05-25T14:20:05.937Z,91.20
2019-05-25T14:22:36.234Z,91.40
2019-05-25T14:25:06.678Z,92.60
2019-05-25T14:27:36.961Z,92.50
2019-05-25T14:30:08.956Z,92.60
2019-05-25T14:32:39.240Z,92.80
2019-05-25T14:35:09.847Z,93.10
2019-05-25T14:37:40.107Z,92.90
2019-05-25T14:40:11.845Z,90.30
2019-05-25T14:42:42.379Z,87.90
2019-05-25T14:45:13.147Z,86.60
2019-05-25T14:47:43.415Z,85.10
2019-05-25T14:50:14.478Z,89.00
2019-05-25T14:52:44.749Z,86.90
2019-05-25T14:55:15.164Z,86.80
2019-05-25T14:57:45.501Z,88.20
2019-05-25T15:00:17.909Z,85.80
2019-05-25T15:02:50.908Z,87.80
2019-05-25T15:05:21.196Z,90.20
2019-05-25T15:07:51.458Z,83.60
2019-05-25T15:10:22.285Z,85.00
2019-05-25T15:12:52.561Z,85.40
2019-05-25T15:15:22.912Z,85.80
2019-05-25T15:17:54.490Z,90.00
2019-05-25T15:20:24.722Z,88.30
2019-05-25T15:22:55.995Z,85.20
2019-05-25T15:25:26.498Z,86.70
2019-05-25T15:27:57.246Z,87.70
2019-05-25T15:30:27.553Z,89.20
2019-05-25T15:32:57.808Z,89.10
2019-05-25T15:35:28.163Z,87.90
2019-05-25T15:37:58.422Z,86.80
2019-05-25T15:40:28.762Z,87.10
2019-05-25T15:42:59.031Z,87.00
2019-05-25T15:45:29.564Z,90.00
2019-05-25T15:47:59.963Z,88.60
2019-05-25T15:50:30.884Z,84.10
2019-05-25T15:53:01.680Z,87.00
2019-05-25T15:55:32.025Z,84.10
2019-05-25T15:58:02.297Z,86.80
2019-05-25T16:00:46.460Z,84.70
2019-05-25T16:03:17.674Z,85.50
2019-05-25T16:05:48.666Z,84.10
2019-05-25T16:08:20.706Z,84.20
2019-05-25T16:10:50.977Z,86.50
2019-05-25T16:13:21.275Z,87.00
2019-05-25T16:15:51.663Z,90.20
2019-05-25T16:18:21.929Z,89.90
2019-05-25T16:20:52.609Z,90.20
2019-05-25T16:23:22.966Z,90.20
2019-05-25T16:25:54.316Z,86.50
2019-05-25T16:28:24.574Z,87.40
2019-05-25T16:30:54.937Z,86.60
2019-05-25T16:33:26.403Z,88.60
2019-05-25T16:35:58.191Z,88.90
2019-05-25T16:38:28.714Z,89.80
2019-05-25T16:40:59.601Z,90.30
2019-05-25T16:43:30.507Z,90.70
2019-05-25T16:46:00.779Z,91.30
2019-05-25T16:48:31.104Z,90.80
2019-05-25T16:51:01.375Z,91.00
2019-05-25T16:53:31.655Z,87.50
2019-05-25T16:56:01.911Z,88.80
2019-05-25T16:58:32.180Z,89.40
2019-05-25T17:01:02.566Z,90.70
2019-05-25T17:03:32.888Z,91.30
2019-05-25T17:06:03.234Z,91.00
2019-05-25T17:08:33.683Z,91.10
2019-05-25T17:11:04.039Z,92.50
2019-05-25T17:13:48.308Z,92.30
2019-05-25T17:16:18.619Z,92.80
2019-05-25T17:18:48.858Z,94.10
2019-05-25T17:21:19.170Z,95.10
2019-05-25T17:23:49.522Z,95.60
2019-05-25T17:26:20.306Z,96.00
2019-05-25T17:28:50.771Z,96.90
2019-05-25T17:31:21.070Z,96.90
2019-05-25T17:33:51.706Z,97.50
2019-05-25T17:36:37.601Z,97.80
2019-05-25T17:39:19.441Z,98.70
2019-05-25T17:42:01.233Z,98.30
2019-05-25T17:44:41.346Z,98.80
2019-05-25T17:47:23.517Z,99.50
2019-05-25T17:50:05.233Z,99.40
2019-05-25T17:52:51.591Z,99.60
2019-05-25T17:55:31.767Z,99.90
2019-05-25T17:58:12.105Z,99.90
2019-05-25T18:00:54.500Z,99.90
2019-05-25T18:03:36.879Z,99.90
2019-05-25T18:06:18.599Z,99.90
2019-05-25T18:09:00.541Z,99.90
2019-05-25T18:11:42.345Z,99.90
2019-05-25T18:14:24.403Z,99.90
2019-05-25T18:16:54.650Z,99.90
2019-05-25T18:19:43.967Z,99.90
2019-05-25T18:22:24.470Z,99.90
2019-05-25T18:25:10.473Z,99.90
2019-05-25T18:27:51.179Z,99.90
2019-05-25T18:30:34.185Z,99.90
2019-05-25T18:33:14.424Z,99.90
2019-05-25T18:35:54.643Z,99.90
2019-05-25T18:38:35.100Z,99.90
2019-05-25T18:41:17.015Z,99.90
2019-05-25T18:43:58.680Z,99.90
2019-05-25T18:46:38.783Z,99.90
2019-05-25T18:49:18.946Z,99.90
2019-05-25T18:52:00.616Z,99.90
2019-05-25T18:54:42.614Z,99.90
2019-05-25T18:57:23.788Z,99.90
2019-05-25T19:00:06.278Z,99.90
2019-05-25T19:02:48.214Z,99.90
2019-05-25T19:05:28.767Z,99.90
2019-05-25T19:08:09.565Z,99.90
2019-05-25T19:10:51.281Z,99.90
2019-05-25T19:13:33.692Z,99.90
2019-05-25T19:19:10.891Z,99.90
2019-05-25T19:21:53.611Z,99.90
2019-05-25T19:24:34.162Z,99.90
2019-05-25T19:27:16.646Z,99.90
2019-05-25T19:29:58.635Z,99.90
2019-05-25T19:32:44.682Z,99.90
2019-05-25T19:35:26.794Z,99.90
2019-05-25T19:38:07.456Z,99.90
2019-05-25T19:40:47.729Z,99.90
2019-05-25T19:43:27.948Z,99.90
2019-05-25T19:46:09.958Z,99.90
2019-05-25T19:48:55.801Z,99.90
2019-05-25T19:51:35.938Z,99.90
2019-05-25T19:54:18.174Z,99.90
2019-05-25T19:57:00.423Z,99.90
2019-05-25T19:59:42.610Z,99.90
2019-05-25T20:02:22.517Z,99.90
2019-05-25T20:05:15.630Z,99.90
2019-05-25T20:07:47.774Z,99.90
2019-05-25T20:10:33.844Z,99.90
2019-05-25T20:13:16.372Z,99.90
2019-05-25T20:15:58.465Z,99.90
2019-05-25T20:18:44.459Z,99.90
2019-05-25T20:21:24.688Z,99.90
2019-05-25T20:24:05.036Z,99.90
2019-05-25T20:26:47.950Z,99.90
2019-05-25T20:29:33.972Z,99.90
2019-05-25T20:32:19.059Z,99.90
2019-05-25T20:35:01.007Z,99.90
2019-05-25T20:37:43.551Z,99.90
2019-05-25T20:40:23.612Z,99.90
2019-05-25T20:43:05.378Z,99.90
2019-05-25T20:45:48.757Z,99.90
2019-05-25T20:48:30.590Z,99.90
2019-05-25T20:51:10.692Z,99.90
2019-05-25T20:53:50.866Z,99.90
2019-05-25T20:56:33.263Z,99.90
2019-05-25T20:59:15.610Z,99.90
2019-05-25T21:01:57.142Z,99.90
2019-05-25T21:04:39.374Z,99.90
2019-05-25T21:07:20.040Z,99.90
2019-05-25T21:10:02.920Z,99.90
2019-05-25T21:12:45.285Z,99.90
2019-05-25T21:15:27.073Z,99.90
2019-05-25T21:18:09.520Z,99.90
2019-05-25T21:20:51.665Z,99.90
2019-05-25T21:23:31.930Z,99.90
2019-05-25T21:26:13.444Z,99.90
2019-05-25T21:28:55.575Z,99.90
2019-05-25T21:31:36.080Z,99.90
2019-05-25T21:34:19.296Z,99.90
2019-05-25T21:37:01.255Z,99.90
2019-05-25T21:39:43.154Z,99.90
2019-05-25T21:42:13.463Z,99.90
2019-05-25T21:45:02.761Z,99.90
2019-05-25T21:47:45.055Z,99.90
2019-05-25T21:50:31.122Z,99.90
2019-05-25T21:53:12.930Z,99.90
2019-05-25T21:55:55.439Z,99.90
2019-05-25T21:58:37.266Z,99.90
2019-05-25T22:01:19.430Z,99.90
2019-05-25T22:04:01.272Z,99.90
2019-05-25T22:06:43.507Z,99.90
2019-05-25T22:09:26.290Z,99.90
2019-05-25T22:12:09.670Z,99.90
2019-05-25T22:14:52.033Z,99.90
2019-05-25T22:17:32.153Z,99.90
2019-05-25T22:20:14.024Z,99.90
2019-05-25T22:22:56.127Z,99.90
2019-05-25T22:25:26.636Z,99.90
2019-05-25T22:28:08.614Z,99.90
2019-05-25T22:30:50.298Z,99.90
2019-05-25T22:33:30.823Z,99.90
2019-05-25T22:36:12.758Z,99.90
2019-05-25T22:38:54.509Z,99.90
2019-05-25T22:41:36.297Z,99.90
2019-05-25T22:44:18.215Z,99.90
2019-05-25T22:47:00.447Z,99.90
2019-05-25T22:49:42.174Z,99.90
2019-05-25T22:52:24.109Z,99.90
2019-05-25T22:55:06.209Z,99.90
2019-05-25T22:57:46.822Z,99.90
2019-05-25T23:00:28.381Z,99.90
2019-05-25T23:03:08.513Z,99.90
2019-05-25T23:05:50.779Z,99.90
2019-05-25T23:08:36.219Z,99.90
2019-05-25T23:11:16.641Z,99.90
2019-05-25T23:13:58.110Z,99.90
2019-05-25T23:16:40.011Z,99.90
2019-05-25T23:19:22.347Z,99.90
2019-05-25T23:22:05.474Z,99.90
2019-05-25T23:24:47.114Z,99.90
2019-05-25T23:27:29.038Z,99.90
2019-05-25T23:32:52.181Z,99.90
2019-05-25T23:35:34.353Z,99.90
2019-05-25T23:38:16.151Z,99.90
2019-05-25T23:40:58.456Z,99.90
2019-05-25T23:43:41.234Z,99.90
2019-05-25T23:46:27.146Z,99.90
2019-05-25T23:49:08.685Z,99.90
2019-05-25T23:51:48.595Z,99.90
2019-05-25T23:54:30.162Z,99.90
2019-05-25T23:57:12.147Z,99.90
2019-05-25T23:59:52.055Z,99.90
